Ghent, Belgium

4:47 AM CEST on July 08, 2015 (GMT +0200)
Sas van Gent | | Change Station
CLOSE
Current Station
Personal Weather Station
Location: Sas Van Gent, ZEELAND
Elevation: 3 ft
Nearby Weather Stations

Elev 3 ft 51.22 °N, 3.79 °E | Updated 11 minutes ago

Mostly Cloudy
Mostly Cloudy
56.2 °F
Feels Like 56.2 °F
N
8.0
Wind Variable Wind from SW
Gusts 14.0 mph

Today
High -- | Low -- °F
--% Chance of Precip.
Yesterday
High -- | Low -- °F
Precip. -- in
5:38 AM 10:00 PM
Waning Gibbous, 58% visible
Pressure 29.77 in
Visibility 6.2 miles
Clouds Scattered Clouds 1200 ft
Mostly Cloudy 1400 ft
Mostly Cloudy 5600 ft
Dew Point 53 °F
Humidity 89%
Rainfall 0.00 in
Snow Depth Not available.
UV 0.0 out of 12
Pollen Not available.
Air Quality Not available.
Flu Activity Not available.
METAR EHWO 080225Z AUTO 23011KT 9999 SCT012 BKN014 BKN056 14/12 Q1008 GRN

More Conditions Fewer Conditions

Pressure 29.77 in
Visibility 6.2 miles
Clouds Scattered Clouds 1200 ft
Mostly Cloudy 1400 ft
Mostly Cloudy 5600 ft
Dew Point 53 °F
Humidity 89%
Rainfall 0.00 in
Snow Depth Not available.
UV 0.0 out of 12
Pollen Not available.
Air Quality Not available.
Flu Activity Not available.
METAR EHWO 080225Z AUTO 23011KT 9999 SCT012 BKN014 BKN056 14/12 Q1008 GRN

More Conditions Fewer Conditions

10-Day Weather Forecast

×

Almanac

Astronomy

Jul. 08, 2015 Rise Set
Actual Time
Civil Twilight
Nautical Twilight
Astronomical Twilight
Moon
Length of Visible Light
Length of Day
Tomorrow will be .
, % of the Moon is Illuminated

Today's Extremes

Country Highs Country Lows

Community

WunderPhotos

Upload Photos

1,836,021 photos uploaded!

WunderBlogs® & News

Nearby

Air Quality

  Air Quality AQ Index Pollutant
Not available.

Snow Depth

Station Depth Elevation

Earthquake Activity

City Distance Mag. Time & Date
Minimum magnitude displayed is 2.5.

Coastal Water Temperatures

Place Temperature

Stations

Nearby Weather Stations

Station Location Temp. Windchill Dew Point Humidity Wind Precip. Elev Updated Type